sensor_id;sensor_type;location;lat;lon;timestamp;pressure;altitude;pressure_sealevel;temperature;humidity
49841;BME280;35738;49.890;5.930;2023-02-03T00:02:00;96876.81;;;4.67;100.00
49841;BME280;35738;49.890;5.930;2023-02-03T00:04:27;96879.25;;;4.64;100.00
49841;BME280;35738;49.890;5.930;2023-02-03T00:06:54;96882.25;;;4.62;100.00
49841;BME280;35738;49.890;5.930;2023-02-03T00:09:21;96872.44;;;4.61;100.00
49841;BME280;35738;49.890;5.930;2023-02-03T00:11:48;96875.72;;;4.63;100.00
49841;BME280;35738;49.890;5.930;2023-02-03T00:14:15;96880.59;;;4.61;100.00
49841;BME280;35738;49.890;5.930;2023-02-03T00:16:42;96883.34;;;4.66;100.00
49841;BME280;35738;49.890;5.930;2023-02-03T00:19:09;96876.00;;;4.67;100.00
49841;BME280;35738;49.890;5.930;2023-02-03T00:21:36;96887.72;;;4.67;100.00
49841;BME280;35738;49.890;5.930;2023-02-03T00:24:03;96883.88;;;4.58;100.00
49841;BME280;35738;49.890;5.930;2023-02-03T00:26:30;96863.34;;;4.45;100.00
49841;BME280;35738;49.890;5.930;2023-02-03T00:28:58;96867.53;;;4.58;100.00
49841;BME280;35738;49.890;5.930;2023-02-03T00:31:25;96875.69;;;4.53;100.00
49841;BME280;35738;49.890;5.930;2023-02-03T00:33:57;96872.41;;;4.51;100.00
49841;BME280;35738;49.890;5.930;2023-02-03T00:36:24;96868.06;;;4.60;100.00
49841;BME280;35738;49.890;5.930;2023-02-03T00:38:52;96853.88;;;4.53;100.00
49841;BME280;35738;49.890;5.930;2023-02-03T00:41:20;96862.06;;;4.58;100.00
49841;BME280;35738;49.890;5.930;2023-02-03T00:43:47;96850.34;;;4.53;100.00
49841;BME280;35738;49.890;5.930;2023-02-03T00:46:15;96845.91;;;4.41;100.00
49841;BME280;35738;49.890;5.930;2023-02-03T00:48:42;96842.41;;;4.46;100.00
49841;BME280;35738;49.890;5.930;2023-02-03T00:51:09;96834.25;;;4.46;100.00
49841;BME280;35738;49.890;5.930;2023-02-03T00:53:35;96845.16;;;4.51;100.00
49841;BME280;35738;49.890;5.930;2023-02-03T00:56:02;96840.25;;;4.53;100.00
49841;BME280;35738;49.890;5.930;2023-02-03T00:58:29;96849.28;;;4.59;100.00
49841;BME280;35738;49.890;5.930;2023-02-03T01:00:56;96835.88;;;4.47;100.00
49841;BME280;35738;49.890;5.930;2023-02-03T01:03:24;96827.44;;;4.49;100.00
49841;BME280;35738;49.890;5.930;2023-02-03T01:05:51;96812.13;;;4.37;100.00
49841;BME280;35738;49.890;5.930;2023-02-03T01:08:18;96800.72;;;4.45;100.00
49841;BME280;35738;49.890;5.930;2023-02-03T01:10:45;96797.75;;;4.47;100.00
49841;BME280;35738;49.890;5.930;2023-02-03T01:13:12;96774.28;;;4.41;100.00
49841;BME280;35738;49.890;5.930;2023-02-03T01:15:45;96783.00;;;4.38;100.00
49841;BME280;35738;49.890;5.930;2023-02-03T01:18:12;96778.38;;;4.43;100.00
49841;BME280;35738;49.890;5.930;2023-02-03T01:20:40;96760.38;;;4.37;100.00
49841;BME280;35738;49.890;5.930;2023-02-03T01:23:07;96786.59;;;4.49;100.00
49841;BME280;35738;49.890;5.930;2023-02-03T01:25:34;96767.72;;;4.37;100.00
49841;BME280;35738;49.890;5.930;2023-02-03T01:28:01;96795.56;;;4.49;100.00
49841;BME280;35738;49.890;5.930;2023-02-03T01:30:28;96786.25;;;4.40;100.00
49841;BME280;35738;49.890;5.930;2023-02-03T01:32:58;96778.63;;;4.42;100.00
49841;BME280;35738;49.890;5.930;2023-02-03T01:35:25;96774.81;;;4.38;100.00
49841;BME280;35738;49.890;5.930;2023-02-03T01:37:52;96771.81;;;4.39;100.00
49841;BME280;35738;49.890;5.930;2023-02-03T01:40:19;96786.50;;;4.33;100.00
49841;BME280;35738;49.890;5.930;2023-02-03T01:42:45;96788.19;;;4.44;100.00
49841;BME280;35738;49.890;5.930;2023-02-03T01:45:12;96802.06;;;4.43;100.00
49841;BME280;35738;49.890;5.930;2023-02-03T01:47:58;96812.69;;;4.44;100.00
49841;BME280;35738;49.890;5.930;2023-02-03T01:50:30;96790.59;;;4.36;100.00
49841;BME280;35738;49.890;5.930;2023-02-03T01:53:06;96756.84;;;4.37;100.00
49841;BME280;35738;49.890;5.930;2023-02-03T01:55:37;96787.88;;;4.36;100.00
49841;BME280;35738;49.890;5.930;2023-02-03T01:58:12;96798.84;;;4.46;100.00
49841;BME280;35738;49.890;5.930;2023-02-03T02:00:41;96809.41;;;4.37;100.00
49841;BME280;35738;49.890;5.930;2023-02-03T02:03:09;96809.72;;;4.46;100.00
49841;BME280;35738;49.890;5.930;2023-02-03T02:05:48;96805.59;;;4.43;100.00
49841;BME280;35738;49.890;5.930;2023-02-03T02:08:17;96787.34;;;4.34;100.00
49841;BME280;35738;49.890;5.930;2023-02-03T02:10:45;96797.69;;;4.42;100.00
49841;BME280;35738;49.890;5.930;2023-02-03T02:13:13;96803.22;;;4.52;100.00
49841;BME280;35738;49.890;5.930;2023-02-03T02:32:48;96844.63;;;4.54;100.00
49841;BME280;35738;49.890;5.930;2023-02-03T02:38:49;96832.06;;;4.48;100.00
49841;BME280;35738;49.890;5.930;2023-02-03T02:41:25;96847.88;;;4.46;100.00
49841;BME280;35738;49.890;5.930;2023-02-03T02:44:03;96812.69;;;4.39;100.00
49841;BME280;35738;49.890;5.930;2023-02-03T02:46:37;96818.97;;;4.45;100.00
49841;BME280;35738;49.890;5.930;2023-02-03T02:49:15;96829.84;;;4.45;100.00
49841;BME280;35738;49.890;5.930;2023-02-03T02:51:46;96845.16;;;4.51;100.00
49841;BME280;35738;49.890;5.930;2023-02-03T02:54:20;96853.56;;;4.44;100.00
49841;BME280;35738;49.890;5.930;2023-02-03T02:56:54;96828.53;;;4.47;100.00
49841;BME280;35738;49.890;5.930;2023-02-03T02:59:21;96809.72;;;4.46;100.00
49841;BME280;35738;49.890;5.930;2023-02-03T03:01:48;96806.16;;;4.40;100.00
49841;BME280;35738;49.890;5.930;2023-02-03T03:04:18;96818.47;;;4.53;100.00
49841;BME280;35738;49.890;5.930;2023-02-03T03:06:55;96831.00;;;4.49;100.00
49841;BME280;35738;49.890;5.930;2023-02-03T03:11:57;96795.56;;;4.49;100.00
49841;BME280;35738;49.890;5.930;2023-02-03T03:14:27;96802.41;;;4.52;100.00
49841;BME280;35738;49.890;5.930;2023-02-03T03:17:01;96805.09;;;4.46;100.00
49841;BME280;35738;49.890;5.930;2023-02-03T03:19:34;96792.31;;;4.52;100.00
49841;BME280;35738;49.890;5.930;2023-02-03T03:22:06;96802.13;;;4.58;100.00
49841;BME280;35738;49.890;5.930;2023-02-03T03:24:42;96779.19;;;4.44;100.00
49841;BME280;35738;49.890;5.930;2023-02-03T03:27:23;96796.94;;;4.52;100.00
49841;BME280;35738;49.890;5.930;2023-02-03T03:29:56;96800.47;;;4.47;100.00
49841;BME280;35738;49.890;5.930;2023-02-03T03:32:25;96806.47;;;4.54;100.00
49841;BME280;35738;49.890;5.930;2023-02-03T03:34:53;96784.97;;;4.53;100.00
49841;BME280;35738;49.890;5.930;2023-02-03T03:39:57;96780.81;;;4.45;100.00
49841;BME280;35738;49.890;5.930;2023-02-03T03:42:29;96776.72;;;4.42;100.00
49841;BME280;35738;49.890;5.930;2023-02-03T03:50:27;96812.69;;;4.39;100.00
49841;BME280;35738;49.890;5.930;2023-02-03T03:52:57;96817.63;;;4.47;100.00
49841;BME280;35738;49.890;5.930;2023-02-03T03:55:27;96800.97;;;4.44;100.00
49841;BME280;35738;49.890;5.930;2023-02-03T03:58:01;96806.41;;;4.34;100.00
49841;BME280;35738;49.890;5.930;2023-02-03T04:00:31;96812.13;;;4.42;100.00
49841;BME280;35738;49.890;5.930;2023-02-03T04:03:04;96817.84;;;4.41;100.00
49841;BME280;35738;49.890;5.930;2023-02-03T04:05:33;96825.56;;;4.54;100.00
49841;BME280;35738;49.890;5.930;2023-02-03T04:08:00;96835.06;;;4.46;100.00
49841;BME280;35738;49.890;5.930;2023-02-03T04:10:35;96830.91;;;4.39;100.00
49841;BME280;35738;49.890;5.930;2023-02-03T04:13:03;96823.28;;;4.36;100.00
49841;BME280;35738;49.890;5.930;2023-02-03T04:15:31;96826.56;;;4.43;100.00
49841;BME280;35738;49.890;5.930;2023-02-03T04:17:58;96823.84;;;4.38;100.00
49841;BME280;35738;49.890;5.930;2023-02-03T04:20:28;96823.31;;;4.41;100.00
49841;BME280;35738;49.890;5.930;2023-02-03T04:22:55;96828.81;;;4.46;100.00
49841;BME280;35738;49.890;5.930;2023-02-03T04:25:23;96838.06;;;4.50;100.00
49841;BME280;35738;49.890;5.930;2023-02-03T04:27:50;96816.50;;;4.43;100.00
49841;BME280;35738;49.890;5.930;2023-02-03T04:30:17;96853.88;;;4.53;100.00
49841;BME280;35738;49.890;5.930;2023-02-03T04:32:44;96851.97;;;4.49;100.00
49841;BME280;35738;49.890;5.930;2023-02-03T04:35:12;96847.09;;;4.56;100.00
49841;BME280;35738;49.890;5.930;2023-02-03T04:37:39;96843.00;;;4.63;100.00
49841;BME280;35738;49.890;5.930;2023-02-03T04:40:07;96847.34;;;4.54;100.00
49841;BME280;35738;49.890;5.930;2023-02-03T04:42:38;96852.00;;;4.59;100.00
49841;BME280;35738;49.890;5.930;2023-02-03T04:45:07;96833.72;;;4.49;100.00
49841;BME280;35738;49.890;5.930;2023-02-03T04:47:34;96834.53;;;4.50;100.00
49841;BME280;35738;49.890;5.930;2023-02-03T04:50:01;96830.47;;;4.57;100.00
49841;BME280;35738;49.890;5.930;2023-02-03T04:52:28;96825.81;;;4.53;100.00
49841;BME280;35738;49.890;5.930;2023-02-03T04:54:54;96831.28;;;4.53;100.00
49841;BME280;35738;49.890;5.930;2023-02-03T04:57:21;96837.81;;;4.57;100.00
49841;BME280;35738;49.890;5.930;2023-02-03T04:59:51;96840.28;;;4.58;100.00
49841;BME280;35738;49.890;5.930;2023-02-03T05:02:20;96826.09;;;4.51;100.00
49841;BME280;35738;49.890;5.930;2023-02-03T05:04:46;96819.28;;;4.49;100.00
49841;BME280;35738;49.890;5.930;2023-02-03T05:07:13;96797.75;;;4.47;100.00
49841;BME280;35738;49.890;5.930;2023-02-03T05:09:40;96793.06;;;4.42;100.00
49841;BME280;35738;49.890;5.930;2023-02-03T05:12:07;96807.78;;;4.41;100.00
49841;BME280;35738;49.890;5.930;2023-02-03T05:14:33;96790.91;;;4.44;100.00
49841;BME280;35738;49.890;5.930;2023-02-03T05:17:00;96803.22;;;4.52;100.00
49841;BME280;35738;49.890;5.930;2023-02-03T05:19:27;96793.38;;;4.46;100.00
49841;BME280;35738;49.890;5.930;2023-02-03T05:21:53;96807.03;;;4.51;100.00
49841;BME280;35738;49.890;5.930;2023-02-03T05:24:20;96808.41;;;4.59;100.00
49841;BME280;35738;49.890;5.930;2023-02-03T05:26:47;96820.94;;;4.60;100.00
49841;BME280;35738;49.890;5.930;2023-02-03T05:29:14;96813.56;;;4.55;100.00
49841;BME280;35738;49.890;5.930;2023-02-03T05:31:41;96807.56;;;4.53;100.00
49841;BME280;35738;49.890;5.930;2023-02-03T05:34:08;96822.56;;;4.56;100.00
49841;BME280;35738;49.890;5.930;2023-02-03T05:36:40;96835.94;;;4.62;100.00
49841;BME280;35738;49.890;5.930;2023-02-03T05:39:07;96828.25;;;4.49;100.00
49841;BME280;35738;49.890;5.930;2023-02-03T05:41:34;96834.25;;;4.51;100.00
49841;BME280;35738;49.890;5.930;2023-02-03T05:44:24;96804.56;;;4.50;100.00
49841;BME280;35738;49.890;5.930;2023-02-03T05:46:53;96809.72;;;4.46;100.00
49841;BME280;35738;49.890;5.930;2023-02-03T05:49:22;96809.16;;;4.44;100.00
49841;BME280;35738;49.890;5.930;2023-02-03T05:51:50;96808.88;;;4.45;100.00
49841;BME280;35738;49.890;5.930;2023-02-03T05:54:17;96818.47;;;4.53;100.00
49841;BME280;35738;49.890;5.930;2023-02-03T05:56:44;96828.28;;;4.54;100.00
49841;BME280;35738;49.890;5.930;2023-02-03T05:59:11;96841.84;;;4.44;100.00
49841;BME280;35738;49.890;5.930;2023-02-03T06:01:38;96844.59;;;4.49;100.00
49841;BME280;35738;49.890;5.930;2023-02-03T06:04:05;96826.63;;;4.48;100.00
49841;BME280;35738;49.890;5.930;2023-02-03T06:06:32;96810.50;;;4.41;100.00
49841;BME280;35738;49.890;5.930;2023-02-03T06:09:04;96806.16;;;4.40;100.00
49841;BME280;35738;49.890;5.930;2023-02-03T06:11:32;96814.09;;;4.47;100.00
49841;BME280;35738;49.890;5.930;2023-02-03T06:13:59;96798.53;;;4.42;100.00
49841;BME280;35738;49.890;5.930;2023-02-03T06:16:27;96790.63;;;4.41;100.00
49841;BME280;35738;49.890;5.930;2023-02-03T06:18:55;96792.81;;;4.44;100.00
49841;BME280;35738;49.890;5.930;2023-02-03T06:21:26;96806.16;;;4.40;100.00
49841;BME280;35738;49.890;5.930;2023-02-03T06:23:53;96787.66;;;4.47;100.00
49841;BME280;35738;49.890;5.930;2023-02-03T06:26:21;96794.72;;;4.43;100.00
49841;BME280;35738;49.890;5.930;2023-02-03T06:28:48;96807.03;;;4.51;100.00
49841;BME280;35738;49.890;5.930;2023-02-03T06:31:14;96799.94;;;4.55;100.00
49841;BME280;35738;49.890;5.930;2023-02-03T06:33:41;96798.56;;;4.47;100.00
49841;BME280;35738;49.890;5.930;2023-02-03T06:36:08;96802.66;;;4.50;100.00
49841;BME280;35738;49.890;5.930;2023-02-03T06:38:35;96809.19;;;4.49;100.00
49841;BME280;35738;49.890;5.930;2023-02-03T06:41:02;96820.38;;;4.53;100.00
49841;BME280;35738;49.890;5.930;2023-02-03T06:43:28;96816.50;;;4.43;100.00
49841;BME280;35738;49.890;5.930;2023-02-03T06:45:55;96811.66;;;4.51;100.00
49841;BME280;35738;49.890;5.930;2023-02-03T06:48:22;96816.22;;;4.40;100.00
49841;BME280;35738;49.890;5.930;2023-02-03T06:50:49;96831.28;;;4.58;100.00
49841;BME280;35738;49.890;5.930;2023-02-03T06:53:16;96838.09;;;4.60;100.00
49841;BME280;35738;49.890;5.930;2023-02-03T06:55:42;96835.91;;;4.57;100.00
49841;BME280;35738;49.890;5.930;2023-02-03T06:58:09;96839.19;;;4.54;100.00
49841;BME280;35738;49.890;5.930;2023-02-03T07:00:36;96842.72;;;4.55;100.00
49841;BME280;35738;49.890;5.930;2023-02-03T07:03:03;96834.25;;;4.51;100.00
49841;BME280;35738;49.890;5.930;2023-02-03T07:05:30;96817.84;;;4.41;100.00
49841;BME280;35738;49.890;5.930;2023-02-03T07:07:57;96826.06;;;4.46;100.00
49841;BME280;35738;49.890;5.930;2023-02-03T07:10:24;96855.25;;;4.56;100.00
49841;BME280;35738;49.890;5.930;2023-02-03T07:12:51;96853.91;;;4.63;100.00
49841;BME280;35738;49.890;5.930;2023-02-03T07:15:18;96849.00;;;4.60;100.00
49841;BME280;35738;49.890;5.930;2023-02-03T07:17:46;96870.25;;;4.58;100.00
49841;BME280;35738;49.890;5.930;2023-02-03T07:20:21;96872.16;;;4.58;100.00
49841;BME280;35738;49.890;5.930;2023-02-03T07:22:52;96872.72;;;4.65;100.00
49841;BME280;35738;49.890;5.930;2023-02-03T07:25:19;96865.63;;;4.59;100.00
49841;BME280;35738;49.890;5.930;2023-02-03T07:27:46;96880.88;;;4.60;100.00
49841;BME280;35738;49.890;5.930;2023-02-03T07:30:14;96895.06;;;4.62;100.00
49841;BME280;35738;49.890;5.930;2023-02-03T07:32:40;96894.28;;;4.71;100.00
49841;BME280;35738;49.890;5.930;2023-02-03T07:35:07;96888.84;;;4.76;100.00
49841;BME280;35738;49.890;5.930;2023-02-03T07:37:34;96885.53;;;4.69;100.00
49841;BME280;35738;49.890;5.930;2023-02-03T07:40:00;96876.81;;;4.67;100.00
49841;BME280;35738;49.890;5.930;2023-02-03T07:42:27;96879.56;;;4.72;100.00
49841;BME280;35738;49.890;5.930;2023-02-03T07:44:53;96871.94;;;4.74;100.00
49841;BME280;35738;49.890;5.930;2023-02-03T07:47:20;96887.75;;;4.77;100.00
49841;BME280;35738;49.890;5.930;2023-02-03T07:49:47;96885.56;;;4.74;100.00
49841;BME280;35738;49.890;5.930;2023-02-03T07:52:15;96871.13;;;4.74;100.00
49841;BME280;35738;49.890;5.930;2023-02-03T07:54:42;96868.66;;;4.77;100.00
49841;BME280;35738;49.890;5.930;2023-02-03T07:57:08;96875.25;;;4.87;100.00
49841;BME280;35738;49.890;5.930;2023-02-03T07:59:35;96871.13;;;4.84;100.00
49841;BME280;35738;49.890;5.930;2023-02-03T08:02:02;96891.06;;;4.95;100.00
49841;BME280;35738;49.890;5.930;2023-02-03T08:04:28;96892.41;;;4.92;100.00
49841;BME280;35738;49.890;5.930;2023-02-03T08:06:55;96896.50;;;4.90;100.00
49841;BME280;35738;49.890;5.930;2023-02-03T08:09:23;96904.66;;;4.85;100.00
49841;BME280;35738;49.890;5.930;2023-02-03T08:11:49;96920.47;;;4.83;100.00
49841;BME280;35738;49.890;5.930;2023-02-03T08:14:16;96914.44;;;4.70;100.00
49841;BME280;35738;49.890;5.930;2023-02-03T08:16:42;96936.81;;;4.77;100.00
49841;BME280;35738;49.890;5.930;2023-02-03T08:19:09;96919.88;;;4.70;100.00
49841;BME280;35738;49.890;5.930;2023-02-03T08:21:36;96906.78;;;4.62;100.00
49841;BME280;35738;49.890;5.930;2023-02-03T08:24:03;96905.66;;;4.58;100.00
49841;BME280;35738;49.890;5.930;2023-02-03T08:26:30;96903.50;;;4.65;100.00
49841;BME280;35738;49.890;5.930;2023-02-03T08:28:57;96902.38;;;4.56;100.00
49841;BME280;35738;49.890;5.930;2023-02-03T08:31:23;96914.63;;;4.54;100.00
49841;BME280;35738;49.890;5.930;2023-02-03T08:33:50;96887.38;;;4.54;100.00
49841;BME280;35738;49.890;5.930;2023-02-03T08:36:17;96883.81;;;4.48;100.00
49841;BME280;35738;49.890;5.930;2023-02-03T08:38:44;96892.03;;;4.53;100.00
49841;BME280;35738;49.890;5.930;2023-02-03T08:41:13;96880.06;;;4.59;100.00
49841;BME280;35738;49.890;5.930;2023-02-03T08:43:40;96862.06;;;4.58;100.00
49841;BME280;35738;49.890;5.930;2023-02-03T08:46:09;96881.16;;;4.58;100.00
49841;BME280;35738;49.890;5.930;2023-02-03T08:48:36;96874.06;;;4.62;100.00
49841;BME280;35738;49.890;5.930;2023-02-03T08:51:11;96865.91;;;4.62;100.00
49841;BME280;35738;49.890;5.930;2023-02-03T08:53:38;96871.38;;;4.67;100.00
49841;BME280;35738;49.890;5.930;2023-02-03T08:56:07;96882.84;;;4.79;100.00
49841;BME280;35738;49.890;5.930;2023-02-03T08:58:34;96869.72;;;4.66;100.00
49841;BME280;35738;49.890;5.930;2023-02-03T09:01:09;96890.47;;;4.77;100.00
49841;BME280;35738;49.890;5.930;2023-02-03T09:03:37;96909.59;;;4.88;100.00
49841;BME280;35738;49.890;5.930;2023-02-03T09:06:05;96927.56;;;4.89;100.00
49841;BME280;35738;49.890;5.930;2023-02-03T09:08:32;96926.22;;;4.91;100.00
49841;BME280;35738;49.890;5.930;2023-02-03T09:10:59;96945.84;;;4.93;100.00
49841;BME280;35738;49.890;5.930;2023-02-03T09:13:25;96940.94;;;4.90;100.00
49841;BME280;35738;49.890;5.930;2023-02-03T09:15:52;96931.94;;;4.95;100.00
49841;BME280;35738;49.890;5.930;2023-02-03T09:18:19;96923.25;;;4.98;100.00
49841;BME280;35738;49.890;5.930;2023-02-03T09:20:45;96910.72;;;5.02;100.00
49841;BME280;35738;49.890;5.930;2023-02-03T09:23:13;96891.34;;;4.93;100.00
49841;BME280;35738;49.890;5.930;2023-02-03T09:25:39;96914.28;;;5.18;100.00
49841;BME280;35738;49.890;5.930;2023-02-03T09:28:08;96910.44;;;5.08;100.00
49841;BME280;35738;49.890;5.930;2023-02-03T09:30:35;96908.84;;;5.18;100.00
49841;BME280;35738;49.890;5.930;2023-02-03T09:33:01;96903.69;;;5.26;100.00
49841;BME280;35738;49.890;5.930;2023-02-03T09:35:28;96895.75;;;5.20;100.00
49841;BME280;35738;49.890;5.930;2023-02-03T09:37:57;96905.06;;;5.39;100.00
49841;BME280;35738;49.890;5.930;2023-02-03T09:40:32;96906.97;;;5.33;100.00
49841;BME280;35738;49.890;5.930;2023-02-03T09:45:46;96913.78;;;5.31;100.00
49841;BME280;35738;49.890;5.930;2023-02-03T09:48:22;96910.00;;;5.42;100.00
49841;BME280;35738;49.890;5.930;2023-02-03T09:50:50;96909.16;;;5.36;100.00
49841;BME280;35738;49.890;5.930;2023-02-03T09:53:32;96900.16;;;5.41;100.00
49841;BME280;35738;49.890;5.930;2023-02-03T09:56:01;96899.88;;;5.37;100.00
49841;BME280;35738;49.890;5.930;2023-02-03T09:58:32;96876.44;;;5.31;100.00
49841;BME280;35738;49.890;5.930;2023-02-03T10:01:03;96891.16;;;5.25;100.00
49841;BME280;35738;49.890;5.930;2023-02-03T10:03:53;96904.81;;;5.35;100.00
49841;BME280;35738;49.890;5.930;2023-02-03T10:06:44;96900.16;;;5.46;100.00
49841;BME280;35738;49.890;5.930;2023-02-03T10:09:22;96908.06;;;5.37;100.00
49841;BME280;35738;49.890;5.930;2023-02-03T10:17:54;96916.00;;;5.44;100.00
49841;BME280;35738;49.890;5.930;2023-02-03T10:20:33;96923.88;;;5.30;100.00
49841;BME280;35738;49.890;5.930;2023-02-03T10:23:08;96893.88;;;5.35;100.00
49841;BME280;35738;49.890;5.930;2023-02-03T10:25:43;96893.59;;;5.27;100.00
49841;BME280;35738;49.890;5.930;2023-02-03T10:28:22;96887.34;;;5.31;100.00
49841;BME280;35738;49.890;5.930;2023-02-03T10:30:58;96886.81;;;5.39;100.00
49841;BME280;35738;49.890;5.930;2023-02-03T10:33:28;96881.88;;;5.31;100.00
49841;BME280;35738;49.890;5.930;2023-02-03T10:39:03;96901.25;;;5.45;100.00
49841;BME280;35738;49.890;5.930;2023-02-03T10:41:33;96894.97;;;5.34;100.00
49841;BME280;35738;49.890;5.930;2023-02-03T10:44:04;96896.91;;;5.44;100.00
49841;BME280;35738;49.890;5.930;2023-02-03T10:46:34;96900.72;;;5.43;100.00
49841;BME280;35738;49.890;5.930;2023-02-03T10:49:03;96897.72;;;5.45;100.00
49841;BME280;35738;49.890;5.930;2023-02-03T10:51:37;96898.53;;;5.50;100.00
49841;BME280;35738;49.890;5.930;2023-02-03T10:54:26;96903.16;;;5.45;100.00
49841;BME280;35738;49.890;5.930;2023-02-03T10:57:01;96904.81;;;5.56;100.00
49841;BME280;35738;49.890;5.930;2023-02-03T10:59:32;96897.16;;;5.53;100.00
49841;BME280;35738;49.890;5.930;2023-02-03T11:02:06;96885.16;;;5.43;100.00
49841;BME280;35738;49.890;5.930;2023-02-03T11:04:34;96904.00;;;5.50;100.00
49841;BME280;35738;49.890;5.930;2023-02-03T11:07:04;96904.00;;;5.55;100.00
49841;BME280;35738;49.890;5.930;2023-02-03T11:09:36;96887.91;;;5.49;100.00
49841;BME280;35738;49.890;5.930;2023-02-03T11:14:39;96901.25;;;5.60;100.00
49841;BME280;35738;49.890;5.930;2023-02-03T11:17:18;96886.53;;;5.51;100.00
49841;BME280;35738;49.890;5.930;2023-02-03T11:19:46;96864.44;;;5.48;100.00
49841;BME280;35738;49.890;5.930;2023-02-03T11:22:29;96889.53;;;5.55;100.00
49841;BME280;35738;49.890;5.930;2023-02-03T11:24:58;96873.44;;;5.53;100.00
49841;BME280;35738;49.890;5.930;2023-02-03T11:27:28;96877.25;;;5.52;100.00
49841;BME280;35738;49.890;5.930;2023-02-03T11:30:16;96871.78;;;5.57;100.00
49841;BME280;35738;49.890;5.930;2023-02-03T11:32:46;96875.34;;;5.58;100.00
49841;BME280;35738;49.890;5.930;2023-02-03T11:35:25;96857.88;;;5.54;100.00
49841;BME280;35738;49.890;5.930;2023-02-03T11:37:57;96846.97;;;5.43;100.00
49841;BME280;35738;49.890;5.930;2023-02-03T11:40:28;96854.06;;;5.55;100.00
49841;BME280;35738;49.890;5.930;2023-02-03T11:45:40;96870.44;;;5.34;100.00
49841;BME280;35738;49.890;5.930;2023-02-03T12:05:25;96861.97;;;5.46;100.00
49841;BME280;35738;49.890;5.930;2023-02-03T12:10:34;96873.16;;;5.60;100.00
49841;BME280;35738;49.890;5.930;2023-02-03T12:13:14;96869.34;;;5.51;100.00
49841;BME280;35738;49.890;5.930;2023-02-03T12:16:01;96863.34;;;5.49;100.00
49841;BME280;35738;49.890;5.930;2023-02-03T12:18:59;96857.06;;;5.48;100.00
49841;BME280;35738;49.890;5.930;2023-02-03T12:21:45;96872.34;;;5.59;100.00
49841;BME280;35738;49.890;5.930;2023-02-03T12:24:28;96868.78;;;5.59;100.00
49841;BME280;35738;49.890;5.930;2023-02-03T12:27:13;96871.53;;;5.59;100.00
49841;BME280;35738;49.890;5.930;2023-02-03T12:29:57;96858.44;;;5.46;100.00
49841;BME280;35738;49.890;5.930;2023-02-03T12:32:39;96867.69;;;5.55;100.00
49841;BME280;35738;49.890;5.930;2023-02-03T12:35:37;96870.16;;;5.61;100.00
49841;BME280;35738;49.890;5.930;2023-02-03T12:38:13;96872.63;;;5.58;100.00
49841;BME280;35738;49.890;5.930;2023-02-03T12:40:50;96881.91;;;5.57;100.00
49841;BME280;35738;49.890;5.930;2023-02-03T12:43:24;96869.88;;;5.58;100.00
49841;BME280;35738;49.890;5.930;2023-02-03T12:45:57;96874.25;;;5.59;100.00
49841;BME280;35738;49.890;5.930;2023-02-03T12:51:50;96876.44;;;5.67;100.00
49841;BME280;35738;49.890;5.930;2023-02-03T12:54:28;96872.34;;;5.69;100.00
49841;BME280;35738;49.890;5.930;2023-02-03T12:57:02;96859.50;;;5.65;100.00
49841;BME280;35738;49.890;5.930;2023-02-03T12:59:35;96853.22;;;5.69;100.00
49841;BME280;35738;49.890;5.930;2023-02-03T13:02:17;96852.97;;;5.61;100.00
49841;BME280;35738;49.890;5.930;2023-02-03T13:04:56;96851.31;;;5.70;100.00
49841;BME280;35738;49.890;5.930;2023-02-03T13:07:42;96825.97;;;5.49;100.00
49841;BME280;35738;49.890;5.930;2023-02-03T13:12:50;96843.13;;;5.75;100.00
49841;BME280;35738;49.890;5.930;2023-02-03T13:15:31;96847.50;;;5.71;100.00
49841;BME280;35738;49.890;5.930;2023-02-03T13:18:24;96854.59;;;5.72;100.00
49841;BME280;35738;49.890;5.930;2023-02-03T13:20:53;96863.59;;;5.67;100.00
49841;BME280;35738;49.890;5.930;2023-02-03T13:23:21;96861.41;;;5.69;100.00
49841;BME280;35738;49.890;5.930;2023-02-03T13:32:08;96868.25;;;5.72;100.00
49841;BME280;35738;49.890;5.930;2023-02-03T13:40:20;96850.78;;;5.73;100.00
49841;BME280;35738;49.890;5.930;2023-02-03T13:42:57;96852.66;;;5.78;100.00
49841;BME280;35738;49.890;5.930;2023-02-03T13:47:55;96849.13;;;5.67;100.00
49841;BME280;35738;49.890;5.930;2023-02-03T13:50:27;96837.94;;;5.63;100.00
49841;BME280;35738;49.890;5.930;2023-02-03T13:55:29;96842.84;;;5.82;100.00
49841;BME280;35738;49.890;5.930;2023-02-03T13:57:57;96839.59;;;5.69;100.00
49841;BME280;35738;49.890;5.930;2023-02-03T14:05:46;96845.03;;;5.80;100.00
49841;BME280;35738;49.890;5.930;2023-02-03T14:16:42;96843.66;;;5.92;100.00
49841;BME280;35738;49.890;5.930;2023-02-03T14:22:02;96841.50;;;5.89;100.00
49841;BME280;35738;49.890;5.930;2023-02-03T14:24:31;96842.03;;;5.91;100.00
49841;BME280;35738;49.890;5.930;2023-02-03T14:27:01;96841.22;;;5.91;100.00
49841;BME280;35738;49.890;5.930;2023-02-03T14:29:32;96853.53;;;5.98;100.00
49841;BME280;35738;49.890;5.930;2023-02-03T14:32:08;96844.75;;;5.81;100.00
49841;BME280;35738;49.890;5.930;2023-02-03T14:34:46;96846.13;;;5.94;100.00
49841;BME280;35738;49.890;5.930;2023-02-03T14:37:28;96857.84;;;5.79;100.00
49841;BME280;35738;49.890;5.930;2023-02-03T14:51:12;96846.94;;;5.89;100.00
49841;BME280;35738;49.890;5.930;2023-02-03T15:02:24;96845.28;;;5.88;100.00
49841;BME280;35738;49.890;5.930;2023-02-03T15:15:31;96834.91;;;5.85;100.00
49841;BME280;35738;49.890;5.930;2023-02-03T15:18:19;96849.13;;;5.92;100.00
49841;BME280;35738;49.890;5.930;2023-02-03T15:20:51;96855.69;;;5.91;100.00
49841;BME280;35738;49.890;5.930;2023-02-03T15:23:23;96845.31;;;5.98;100.00
49841;BME280;35738;49.890;5.930;2023-02-03T15:25:55;96846.09;;;5.89;100.00
49841;BME280;35738;49.890;5.930;2023-02-03T15:28:23;96839.59;;;5.95;100.00
49841;BME280;35738;49.890;5.930;2023-02-03T15:31:05;96854.06;;;6.00;100.00
49841;BME280;35738;49.890;5.930;2023-02-03T15:33:38;96854.59;;;5.97;100.00
49841;BME280;35738;49.890;5.930;2023-02-03T15:36:32;96869.06;;;6.03;100.00